Time;durP1;ratioP1;P1;durP2;ratioP2;P2;SDS_P1;SDS_P2;PMS_P1;PMS_P2;Temp;Humidity;BMP_temperature;BMP_pressure;BME280_temperature;BME280_humidity;BME280_pressure;Samples;Min_cycle;Max_cycle;Signal;HPM_P1;HPM_P2
2020/07/18 00:00:55;;;;;;;3.6;3.1;;;;;;;;;;;;;
2020/07/18 00:03:20;;;;;;;5;3.1;;;;;;;;;;;;;
2020/07/18 00:05:47;;;;;;;3.4;3;;;;;;;;;;;;;
2020/07/18 00:08:15;;;;;;;3.7;2.9;;;;;;;;;;;;;
2020/07/18 00:10:40;;;;;;;8.8;3.3;;;;;;;;;;;;;
2020/07/18 00:13:06;;;;;;;3.2;2.9;;;;;;;;;;;;;
2020/07/18 00:15:33;;;;;;;5.4;3.5;;;;;;;;;;;;;
2020/07/18 00:18:02;;;;;;;3.5;3.2;;;;;;;;;;;;;
2020/07/18 00:20:27;;;;;;;3.6;3.2;;;;;;;;;;;;;
2020/07/18 00:22:52;;;;;;;5.3;3.1;;;;;;;;;;;;;
2020/07/18 00:25:17;;;;;;;5.4;3.4;;;;;;;;;;;;;
2020/07/18 00:27:43;;;;;;;3.4;3.1;;;;;;;;;;;;;
2020/07/18 00:30:08;;;;;;;3.9;3.2;;;;;;;;;;;;;
2020/07/18 00:32:34;;;;;;;4.9;3;;;;;;;;;;;;;
2020/07/18 00:34:58;;;;;;;7.7;3.6;;;;;;;;;;;;;
2020/07/18 00:37:24;;;;;;;4.6;3.4;;;;;;;;;;;;;
2020/07/18 00:39:50;;;;;;;4.1;3.2;;;;;;;;;;;;;
2020/07/18 00:42:15;;;;;;;3.4;3.1;;;;;;;;;;;;;
2020/07/18 00:44:40;;;;;;;3.9;2.9;;;;;;;;;;;;;
2020/07/18 00:47:05;;;;;;;4.5;3;;;;;;;;;;;;;
2020/07/18 00:49:30;;;;;;;3.4;3.1;;;;;;;;;;;;;
2020/07/18 00:51:55;;;;;;;4.2;3.1;;;;;;;;;;;;;
2020/07/18 00:54:22;;;;;;;4.1;2.9;;;;;;;;;;;;;
2020/07/18 00:56:47;;;;;;;4.8;3.4;;;;;;;;;;;;;
2020/07/18 00:59:12;;;;;;;3.8;3.4;;;;;;;;;;;;;
2020/07/18 01:01:38;;;;;;;4.2;3.4;;;;;;;;;;;;;
2020/07/18 01:04:03;;;;;;;3.3;3;;;;;;;;;;;;;
2020/07/18 01:06:29;;;;;;;3.8;3.2;;;;;;;;;;;;;
2020/07/18 01:08:54;;;;;;;4.3;3;;;;;;;;;;;;;
2020/07/18 01:11:20;;;;;;;4.5;3;;;;;;;;;;;;;
2020/07/18 01:13:45;;;;;;;3.7;3.3;;;;;;;;;;;;;
2020/07/18 01:16:11;;;;;;;5.3;3.4;;;;;;;;;;;;;
2020/07/18 01:18:37;;;;;;;3.7;3.3;;;;;;;;;;;;;
2020/07/18 01:21:02;;;;;;;4.9;3.6;;;;;;;;;;;;;
2020/07/18 01:23:27;;;;;;;7.2;3.3;;;;;;;;;;;;;
2020/07/18 01:25:54;;;;;;;4.8;3;;;;;;;;;;;;;
2020/07/18 01:28:19;;;;;;;3.5;3.2;;;;;;;;;;;;;
2020/07/18 01:30:46;;;;;;;4.3;3.2;;;;;;;;;;;;;
2020/07/18 01:33:11;;;;;;;4.9;3.5;;;;;;;;;;;;;
2020/07/18 01:35:36;;;;;;;4.8;3.4;;;;;;;;;;;;;
2020/07/18 01:38:01;;;;;;;4.2;3.3;;;;;;;;;;;;;
2020/07/18 01:40:30;;;;;;;3.9;3.1;;;;;;;;;;;;;
2020/07/18 01:42:55;;;;;;;4;3.3;;;;;;;;;;;;;
2020/07/18 01:45:23;;;;;;;3.5;3.2;;;;;;;;;;;;;
2020/07/18 01:47:47;;;;;;;3.5;3.2;;;;;;;;;;;;;
2020/07/18 01:50:13;;;;;;;3.6;3.3;;;;;;;;;;;;;
2020/07/18 01:52:38;;;;;;;4.7;3.3;;;;;;;;;;;;;
2020/07/18 01:55:03;;;;;;;5;3.4;;;;;;;;;;;;;
2020/07/18 01:57:28;;;;;;;6.9;3.8;;;;;;;;;;;;;
2020/07/18 01:59:54;;;;;;;4.8;3.9;;;;;;;;;;;;;
2020/07/18 02:02:19;;;;;;;4.9;3.2;;;;;;;;;;;;;
2020/07/18 02:04:47;;;;;;;4;3.1;;;;;;;;;;;;;
2020/07/18 02:07:12;;;;;;;8.5;3.6;;;;;;;;;;;;;
2020/07/18 02:09:40;;;;;;;4.1;3.3;;;;;;;;;;;;;
2020/07/18 02:12:05;;;;;;;3.5;3.2;;;;;;;;;;;;;
2020/07/18 02:14:31;;;;;;;3.8;3.4;;;;;;;;;;;;;
2020/07/18 02:16:56;;;;;;;3.6;3.3;;;;;;;;;;;;;
2020/07/18 02:19:21;;;;;;;4.4;3.4;;;;;;;;;;;;;
2020/07/18 02:21:46;;;;;;;4.3;3.3;;;;;;;;;;;;;
2020/07/18 02:24:11;;;;;;;5.1;3.6;;;;;;;;;;;;;
2020/07/18 02:26:37;;;;;;;3.7;3.4;;;;;;;;;;;;;
2020/07/18 02:29:02;;;;;;;4.1;3.3;;;;;;;;;;;;;
2020/07/18 02:31:27;;;;;;;4.2;3.6;;;;;;;;;;;;;
2020/07/18 02:33:52;;;;;;;4.3;3.9;;;;;;;;;;;;;
2020/07/18 02:36:18;;;;;;;5.5;3.8;;;;;;;;;;;;;
2020/07/18 02:38:43;;;;;;;5.2;3.9;;;;;;;;;;;;;
2020/07/18 02:41:08;;;;;;;5.8;4.2;;;;;;;;;;;;;
2020/07/18 02:43:33;;;;;;;3.9;3.5;;;;;;;;;;;;;
2020/07/18 02:46:00;;;;;;;5.4;4;;;;;;;;;;;;;
2020/07/18 02:48:26;;;;;;;5.9;4.1;;;;;;;;;;;;;
2020/07/18 02:50:51;;;;;;;5.5;4.1;;;;;;;;;;;;;
2020/07/18 02:53:16;;;;;;;5.2;4.1;;;;;;;;;;;;;
2020/07/18 02:55:42;;;;;;;4.3;3.7;;;;;;;;;;;;;
2020/07/18 02:58:07;;;;;;;5.4;3.9;;;;;;;;;;;;;
2020/07/18 03:00:36;;;;;;;5.9;4.2;;;;;;;;;;;;;
2020/07/18 03:03:01;;;;;;;4.3;3.9;;;;;;;;;;;;;
2020/07/18 03:05:26;;;;;;;4.1;3.8;;;;;;;;;;;;;
2020/07/18 03:07:51;;;;;;;6.4;3.9;;;;;;;;;;;;;
2020/07/18 03:10:16;;;;;;;3.9;3.6;;;;;;;;;;;;;
2020/07/18 03:12:42;;;;;;;4;3.5;;;;;;;;;;;;;
2020/07/18 03:15:08;;;;;;;4.6;3.8;;;;;;;;;;;;;
2020/07/18 03:17:34;;;;;;;6.3;3.9;;;;;;;;;;;;;
2020/07/18 03:19:59;;;;;;;5.3;3.8;;;;;;;;;;;;;
2020/07/18 03:22:24;;;;;;;4.2;3.8;;;;;;;;;;;;;
2020/07/18 03:24:49;;;;;;;5.3;3.8;;;;;;;;;;;;;
2020/07/18 03:27:14;;;;;;;7.7;3.9;;;;;;;;;;;;;
2020/07/18 03:29:40;;;;;;;4.2;3.8;;;;;;;;;;;;;
2020/07/18 03:32:05;;;;;;;4.6;4.1;;;;;;;;;;;;;
2020/07/18 03:34:31;;;;;;;5.3;4;;;;;;;;;;;;;
2020/07/18 03:36:56;;;;;;;5.7;4;;;;;;;;;;;;;
2020/07/18 03:39:22;;;;;;;6.1;3.6;;;;;;;;;;;;;
2020/07/18 03:41:48;;;;;;;4.2;3.8;;;;;;;;;;;;;
2020/07/18 03:44:14;;;;;;;5.6;3.6;;;;;;;;;;;;;
2020/07/18 03:46:39;;;;;;;4.7;3.9;;;;;;;;;;;;;
2020/07/18 03:49:05;;;;;;;3.9;3.5;;;;;;;;;;;;;
2020/07/18 03:51:30;;;;;;;4.2;3.8;;;;;;;;;;;;;
2020/07/18 03:53:57;;;;;;;5;3.8;;;;;;;;;;;;;
2020/07/18 03:56:22;;;;;;;6;3.8;;;;;;;;;;;;;
2020/07/18 03:58:47;;;;;;;5.5;3.8;;;;;;;;;;;;;
2020/07/18 04:02:30;;;;;;;4.5;3.9;;;;;;;13.95;89.14063;941.8599;;;;
2020/07/18 04:04:58;;;;;;;4.1;3.7;;;;;;;14.02;89.1875;941.8691;;;;
2020/07/18 04:07:23;;;;;;;4.4;3.5;;;;;;;14.1;88.68652;941.8741;;;;
2020/07/18 04:09:50;;;;;;;3.9;3.6;;;;;;;14.15;88.73242;941.8589;;;;
2020/07/18 04:12:15;;;;;;;3.8;3.3;;;;;;;14.3;88.05859;941.8514;;;;
2020/07/18 04:14:43;;;;;;;5.7;3.5;;;;;;;14.35;86.88379;941.8563;;;;
2020/07/18 04:17:08;;;;;;;4.7;3.3;;;;;;;14.36;86.64355;941.8306;;;;
2020/07/18 04:19:33;;;;;;;5;3.2;;;;;;;14.4;86.65039;941.8715;;;;
2020/07/18 04:21:58;;;;;;;3.6;3;;;;;;;14.39;86.25879;941.8122;;;;
2020/07/18 04:24:23;;;;;;;5.1;3.6;;;;;;;14.37;86.51855;941.8234;;;;
2020/07/18 04:26:48;;;;;;;5.1;3.5;;;;;;;14.2;87.06055;941.7461;;;;
2020/07/18 04:29:13;;;;;;;3.4;3.1;;;;;;;14.15;87.16602;941.7533;;;;
2020/07/18 04:31:43;;;;;;;5.2;3.2;;;;;;;14.21;87.34961;941.71;;;;
2020/07/18 04:34:08;;;;;;;5.5;3.2;;;;;;;14.25;87.2207;941.6534;;;;
2020/07/18 04:36:34;;;;;;;4.9;3.1;;;;;;;14.28;85.85547;941.6639;;;;
2020/07/18 04:39:00;;;;;;;3.9;3.2;;;;;;;14.27;86.41602;941.6631;;;;
2020/07/18 04:41:31;;;;;;;4.3;3.4;;;;;;;14.22;86.61426;941.6287;;;;
2020/07/18 04:43:58;;;;;;;4;3.2;;;;;;;14.24;85.66211;941.6135;;;;
2020/07/18 04:46:26;;;;;;;3.7;3.2;;;;;;;14.23;85.73145;941.595;;;;
2020/07/18 04:48:50;;;;;;;3.5;3.2;;;;;;;14.23;86.01758;941.6255;;;;
2020/07/18 04:51:18;;;;;;;5.3;3.3;;;;;;;14.18;86.06445;941.6667;;;;
2020/07/18 04:53:43;;;;;;;3.7;3.3;;;;;;;14.22;86.24609;941.6495;;;;
2020/07/18 04:56:08;;;;;;;3.9;3.4;;;;;;;14.28;85.625;941.6583;;;;
2020/07/18 04:58:33;;;;;;;3.7;3.4;;;;;;;14.37;85.45898;941.555;;;;
2020/07/18 05:00:58;;;;;;;5.1;3.3;;;;;;;14.48;85.22656;941.6445;;;;
2020/07/18 05:03:24;;;;;;;4.3;3.7;;;;;;;14.62;84.56348;941.6247;;;;
2020/07/18 05:05:49;;;;;;;4.6;3.6;;;;;;;14.67;84.47754;941.6375;;;;
2020/07/18 05:08:15;;;;;;;4.3;3.5;;;;;;;14.73;84.61816;941.6006;;;;
2020/07/18 05:10:40;;;;;;;5.6;3.3;;;;;;;14.8;84.40039;941.5901;;;;
2020/07/18 05:13:06;;;;;;;4.8;3.5;;;;;;;14.89;84.42969;941.5164;;;;
2020/07/18 05:15:34;;;;;;;4.6;2.7;;;;;;;15.2;83.01172;941.4719;;;;
2020/07/18 05:18:01;;;;;;;3.3;2.3;;;;;;;16.22;79.75977;941.4405;;;;
2020/07/18 05:20:26;;;;;;;4;1.9;;;;;;;16.8;78.38184;941.4712;;;;
2020/07/18 05:22:55;;;;;;;6.7;2.1;;;;;;;18.41;70.85742;941.3923;;;;
2020/07/18 05:25:20;;;;;;;3;1.8;;;;;;;18.3;67.95703;941.3588;;;;
2020/07/18 05:27:46;;;;;;;2.2;1.7;;;;;;;18.76;66.99316;941.3795;;;;
2020/07/18 05:30:12;;;;;;;2.9;1.7;;;;;;;19.68;64.3584;941.3914;;;;
2020/07/18 05:32:39;;;;;;;2.2;1.5;;;;;;;20.37;63.47754;941.3699;;;;
2020/07/18 05:35:05;;;;;;;4;1.5;;;;;;;21.2;58.14453;941.3401;;;;
2020/07/18 05:37:31;;;;;;;2.6;1.3;;;;;;;21.59;57.69238;941.3725;;;;
2020/07/18 05:39:55;;;;;;;2.9;1.5;;;;;;;22.75;55.19043;941.3393;;;;
2020/07/18 05:42:21;;;;;;;1.8;1.5;;;;;;;23.03;54.16797;941.3968;;;;
2020/07/18 05:44:46;;;;;;;4.6;1.4;;;;;;;21.97;57.4248;941.4157;;;;
2020/07/18 05:47:11;;;;;;;3.3;1.6;;;;;;;21.48;58.91992;941.4078;;;;
2020/07/18 05:49:38;;;;;;;2.4;1.4;;;;;;;21.49;59.25977;941.483;;;;
2020/07/18 05:52:03;;;;;;;3.1;1.4;;;;;;;21.72;58.77441;941.421;;;;
2020/07/18 05:54:30;;;;;;;3.9;1.4;;;;;;;23.57;52.74023;941.3453;;;;
2020/07/18 05:56:55;;;;;;;2.7;1.5;;;;;;;23.89;49.61133;941.2938;;;;
2020/07/18 05:59:22;;;;;;;2.9;1.8;;;;;;;24.39;50.13867;941.2159;;;;
2020/07/18 06:01:52;;;;;;;2.7;1.4;;;;;;;24.73;48.84375;941.291;;;;
2020/07/18 06:04:18;;;;;;;3;1.4;;;;;;;25.23;45.35742;941.3008;;;;
2020/07/18 06:06:44;;;;;;;2.1;1.4;;;;;;;25.58;47.7207;941.2932;;;;
2020/07/18 06:09:14;;;;;;;3.2;1.3;;;;;;;25.65;45.18652;941.3002;;;;
2020/07/18 06:11:34;;;;;;;3;1.3;;;;;;;24.45;47.16309;941.3279;;;;
2020/07/18 06:13:59;;;;;;;1.6;1.4;;;;;;;23.17;52.96289;941.2764;;;;
2020/07/18 06:16:24;;;;;;;2;1.4;;;;;;;24.76;49.53027;941.2662;;;;
2020/07/18 06:18:51;;;;;;;2.4;1.3;;;;;;;25.64;47.32422;941.2901;;;;
2020/07/18 06:21:15;;;;;;;2.4;1.3;;;;;;;26.72;41.23145;941.2047;;;;
2020/07/18 06:23:41;;;;;;;4.3;1.5;;;;;;;27.19;41.38184;941.2697;;;;
2020/07/18 06:26:06;;;;;;;2.5;1.3;;;;;;;26.16;43.25098;941.3025;;;;
2020/07/18 06:28:33;;;;;;;1.5;1.2;;;;;;;26.62;42.72754;941.293;;;;
2020/07/18 06:30:58;;;;;;;2;1.1;;;;;;;25.82;43.59668;941.2734;;;;
2020/07/18 06:33:25;;;;;;;1.3;1.2;;;;;;;25.76;43.93262;941.2467;;;;
2020/07/18 06:35:50;;;;;;;2.4;1.2;;;;;;;26;43.40039;941.2648;;;;
2020/07/18 06:38:17;;;;;;;1.4;1.1;;;;;;;26.62;42.2168;941.2125;;;;
2020/07/18 06:40:55;;;;;;;2.1;1.1;;;;;;;27.77;40.61523;941.2551;;;;
2020/07/18 06:43:20;;;;;;;1.4;1.1;;;;;;;27.84;41.70313;941.2144;;;;
2020/07/18 06:45:48;;;;;;;3;1.2;;;;;;;28.16;37.8584;941.2483;;;;
2020/07/18 06:48:13;;;;;;;1.2;1;;;;;;;28.11;40.25391;941.2618;;;;
2020/07/18 06:50:38;;;;;;;1.6;1;;;;;;;28.4;38.2832;941.2679;;;;
2020/07/18 06:53:04;;;;;;;2.1;1.1;;;;;;;27.01;40.14355;941.2328;;;;
2020/07/18 06:55:29;;;;;;;1.6;1.2;;;;;;;27.16;42.57715;941.2056;;;;
2020/07/18 06:57:56;;;;;;;1.8;1.2;;;;;;;29.02;39.15723;941.2508;;;;
2020/07/18 07:00:27;;;;;;;2.5;1.2;;;;;;;29.52;39.16504;941.2448;;;;
2020/07/18 07:02:53;;;;;;;1.4;1.1;;;;;;;27.85;37.66699;941.241;;;;
2020/07/18 07:05:23;;;;;;;1.5;1.2;;;;;;;26.43;42.04492;941.2695;;;;
2020/07/18 07:07:50;;;;;;;1.5;1.3;;;;;;;25.08;44.32715;941.2897;;;;
2020/07/18 07:10:21;;;;;;;1.7;1.2;;;;;;;24.03;49.00293;941.2659;;;;
2020/07/18 07:12:47;;;;;;;2.6;1.6;;;;;;;21.78;57.79883;941.3602;;;;
2020/07/18 07:15:13;;;;;;;2.9;1.6;;;;;;;21.5;58.17285;941.4089;;;;
2020/07/18 07:17:42;;;;;;;2.1;1.8;;;;;;;21.1;59.06738;941.4634;;;;
2020/07/18 07:20:06;;;;;;;2.9;2;;;;;;;20.78;60.01855;941.4094;;;;
2020/07/18 07:22:31;;;;;;;3.4;2.4;;;;;;;20.46;62.05469;941.4808;;;;
2020/07/18 07:24:56;;;;;;;3.7;2.4;;;;;;;19.82;64.97363;941.4564;;;;
2020/07/18 07:27:23;;;;;;;3.7;2.8;;;;;;;19.21;66.5127;941.4431;;;;
2020/07/18 07:29:48;;;;;;;3.7;2.8;;;;;;;19.12;66.19727;941.4738;;;;
2020/07/18 07:32:14;;;;;;;4.5;2.8;;;;;;;19.24;64.52637;941.4769;;;;
2020/07/18 07:34:39;;;;;;;4.4;2.9;;;;;;;19.4;65.94824;941.3872;;;;
2020/07/18 07:37:05;;;;;;;4.8;2.7;;;;;;;19.43;63.85547;941.3886;;;;
2020/07/18 07:39:30;;;;;;;5;2.9;;;;;;;19.3;66.52734;941.4352;;;;
2020/07/18 07:41:55;;;;;;;3.5;2.3;;;;;;;19.67;61.51172;941.4409;;;;
2020/07/18 07:44:20;;;;;;;4.6;2.4;;;;;;;19.61;61.7832;941.4233;;;;
2020/07/18 07:46:45;;;;;;;4.2;2.6;;;;;;;19.79;62.56641;941.4158;;;;
2020/07/18 07:49:10;;;;;;;3.4;2.6;;;;;;;20.35;61.34961;941.4592;;;;
2020/07/18 07:51:36;;;;;;;5.1;2.5;;;;;;;20.7;60.06641;941.4453;;;;
2020/07/18 07:54:01;;;;;;;8.8;3.2;;;;;;;20.53;60.62598;941.3862;;;;
2020/07/18 07:56:27;;;;;;;4.2;2.5;;;;;;;20.45;59.84473;941.3419;;;;
2020/07/18 07:58:52;;;;;;;6.2;2.3;;;;;;;20.85;57.25684;941.3013;;;;
2020/07/18 08:01:17;;;;;;;5.3;2.5;;;;;;;21.28;58.72852;941.298;;;;
2020/07/18 08:03:42;;;;;;;5;2.6;;;;;;;21.93;59.00195;941.3422;;;;
2020/07/18 08:06:07;;;;;;;5.8;2.6;;;;;;;22.86;56.14355;941.285;;;;
2020/07/18 08:08:35;;;;;;;2.7;2.5;;;;;;;23.56;51.06836;941.2367;;;;
2020/07/18 08:11:00;;;;;;;2.7;2;;;;;;;24.58;47.6123;941.2626;;;;
2020/07/18 08:13:25;;;;;;;3.2;1.7;;;;;;;25.65;47.20703;941.2537;;;;
2020/07/18 08:15:50;;;;;;;2.7;1.4;;;;;;;25.29;44.74902;941.1833;;;;
2020/07/18 08:18:18;;;;;;;2.2;1.7;;;;;;;25.28;44.98438;941.2302;;;;
2020/07/18 08:20:43;;;;;;;2.2;1.5;;;;;;;25.83;48.01953;941.163;;;;
2020/07/18 08:23:11;;;;;;;5;2;;;;;;;26.58;42.14258;941.1131;;;;
2020/07/18 08:25:36;;;;;;;2.7;1.4;;;;;;;28.68;40.54297;941.1746;;;;
2020/07/18 08:28:04;;;;;;;2.6;1.5;;;;;;;29.69;34.23145;941.1516;;;;
2020/07/18 08:30:29;;;;;;;2.2;1.3;;;;;;;29.3;35.97754;941.0878;;;;
2020/07/18 08:32:54;;;;;;;1.3;1.2;;;;;;;30.26;35.49219;941.1039;;;;
2020/07/18 08:35:20;;;;;;;1.8;1.3;;;;;;;31.23;32.39746;941.1401;;;;
2020/07/18 08:37:45;;;;;;;2.9;1.2;;;;;;;30.78;34.50586;941.1028;;;;
2020/07/18 08:40:14;;;;;;;2.6;1.4;;;;;;;32.36;31.51953;941.1367;;;;
2020/07/18 08:42:39;;;;;;;1.7;1.2;;;;;;;30.1;36.39941;941.1026;;;;
2020/07/18 08:45:08;;;;;;;1.8;1.2;;;;;;;31.29;31.98438;941.0684;;;;
2020/07/18 08:47:33;;;;;;;1.4;0.9;;;;;;;32.8;27.99609;941.0242;;;;
2020/07/18 08:49:58;;;;;;;3.4;1.1;;;;;;;32.89;30.63086;941.0235;;;;
2020/07/18 08:52:23;;;;;;;1.8;1.1;;;;;;;32.23;25.86328;940.9595;;;;
2020/07/18 08:54:48;;;;;;;2.9;1.1;;;;;;;32.96;26.09668;940.9866;;;;
2020/07/18 08:57:13;;;;;;;4.1;1.1;;;;;;;33.99;25.45801;941.0287;;;;
2020/07/18 08:59:38;;;;;;;2.8;1.4;;;;;;;34.09;27.23242;941.0136;;;;
2020/07/18 09:02:03;;;;;;;4.2;1.2;;;;;;;34.45;26.47168;941.0114;;;;
2020/07/18 09:04:35;;;;;;;2.5;1.1;;;;;;;33.61;28.51465;941.0125;;;;
2020/07/18 09:07:00;;;;;;;2.4;0.9;;;;;;;31.88;28.53906;940.9651;;;;
2020/07/18 09:09:25;;;;;;;1.8;1;;;;;;;31.27;27.04004;940.9797;;;;
2020/07/18 09:11:53;;;;;;;2.1;1.5;;;;;;;30.03;27.83789;940.949;;;;
2020/07/18 09:14:18;;;;;;;2.1;1;;;;;;;28.58;31.85156;940.9797;;;;
2020/07/18 09:16:44;;;;;;;4.6;1.2;;;;;;;26.92;38.92676;941.0291;;;;
2020/07/18 09:19:10;;;;;;;24.7;8.2;;;;;;;26.29;34.08008;940.9728;;;;
2020/07/18 09:21:35;;;;;;;26.9;10.6;;;;;;;25.91;37.18457;941.0084;;;;
2020/07/18 09:24:00;;;;;;;3.5;1.6;;;;;;;25.57;38.49121;940.9749;;;;
2020/07/18 09:26:26;;;;;;;4.8;2.3;;;;;;;25.25;40.51758;940.9227;;;;
2020/07/18 09:28:50;;;;;;;2.9;1.5;;;;;;;24.85;40.08105;940.949;;;;
2020/07/18 09:31:20;;;;;;;10.6;4.3;;;;;;;25.03;39.73145;940.9574;;;;
2020/07/18 09:33:45;;;;;;;5.6;2.2;;;;;;;25.09;40.36328;941.0168;;;;
2020/07/18 09:36:10;;;;;;;3;1.3;;;;;;;24.74;40.69629;940.9689;;;;
2020/07/18 09:38:36;;;;;;;3.9;1.8;;;;;;;25.09;44.91895;940.9924;;;;
2020/07/18 09:41:03;;;;;;;3.2;1.6;;;;;;;25.17;42.06934;940.9419;;;;
2020/07/18 09:43:28;;;;;;;4.7;1.6;;;;;;;25.26;40.27051;940.9108;;;;
2020/07/18 09:45:56;;;;;;;2.7;1.3;;;;;;;25.51;42.70313;940.8627;;;;
2020/07/18 09:48:24;;;;;;;2.2;1.3;;;;;;;26.36;43.1748;940.8947;;;;
2020/07/18 09:50:49;;;;;;;1.6;1.1;;;;;;;26.34;37.26855;940.8215;;;;
2020/07/18 09:53:15;;;;;;;3.1;1.2;;;;;;;26.09;36.67969;940.8069;;;;
2020/07/18 09:55:40;;;;;;;3.1;1.4;;;;;;;26.74;39.72949;940.7941;;;;
2020/07/18 09:58:09;;;;;;;1.8;1;;;;;;;27.52;36.71289;940.8526;;;;
2020/07/18 10:00:37;;;;;;;1.8;1;;;;;;;27.2;37.62305;940.8456;;;;
2020/07/18 10:03:04;;;;;;;1.4;1;;;;;;;26.9;39.03223;940.8045;;;;
2020/07/18 10:05:29;;;;;;;2.1;1.1;;;;;;;26.97;38.00781;940.8419;;;;
2020/07/18 10:07:54;;;;;;;2.5;1.1;;;;;;;26.41;37.36719;940.8474;;;;
2020/07/18 10:10:23;;;;;;;3.4;1.4;;;;;;;25.65;40.17676;940.8801;;;;
2020/07/18 10:12:51;;;;;;;2.6;1.2;;;;;;;25.17;43.27344;940.9216;;;;
2020/07/18 10:15:17;;;;;;;2.4;1.3;;;;;;;24.68;43.40234;940.8972;;;;
2020/07/18 10:17:46;;;;;;;2.2;1.4;;;;;;;24.02;43.66797;940.861;;;;
2020/07/18 10:20:11;;;;;;;2.3;1.2;;;;;;;23.97;44.81738;940.8572;;;;
2020/07/18 10:22:39;;;;;;;2;1.2;;;;;;;23.62;44.73438;940.89;;;;
2020/07/18 10:25:04;;;;;;;4.2;1.4;;;;;;;23.31;45.26855;940.9231;;;;
2020/07/18 10:27:29;;;;;;;2;1.5;;;;;;;23;46.375;940.8728;;;;
2020/07/18 10:29:54;;;;;;;4.2;1.7;;;;;;;22.76;48.2998;940.9402;;;;
2020/07/18 10:32:20;;;;;;;2.4;1.6;;;;;;;22.58;48.37402;940.8678;;;;
2020/07/18 10:34:46;;;;;;;2.9;1.8;;;;;;;22.33;48.0293;940.9244;;;;
2020/07/18 10:37:11;;;;;;;3.7;1.7;;;;;;;22.24;49.11035;940.86;;;;
2020/07/18 10:39:36;;;;;;;3.3;1.7;;;;;;;22.04;49.00684;940.9217;;;;
2020/07/18 10:42:03;;;;;;;2.1;1.6;;;;;;;21.94;50.02734;940.9398;;;;
2020/07/18 10:44:28;;;;;;;2.3;1.6;;;;;;;21.84;49.32422;940.962;;;;
2020/07/18 10:46:53;;;;;;;2.1;1.4;;;;;;;21.7;50.66797;941.0671;;;;
2020/07/18 10:49:20;;;;;;;2.5;1.7;;;;;;;21.54;49.91211;940.9874;;;;
2020/07/18 10:51:46;;;;;;;2.4;1.6;;;;;;;21.38;50.28125;941.0069;;;;
2020/07/18 10:54:14;;;;;;;6.8;1.8;;;;;;;21.32;51.70117;941.0676;;;;
2020/07/18 10:56:42;;;;;;;2.6;1.5;;;;;;;21.21;51.58203;941.0175;;;;
2020/07/18 10:59:07;;;;;;;3.2;1.8;;;;;;;21.14;52.35742;940.9967;;;;
2020/07/18 11:01:32;;;;;;;3.8;1.9;;;;;;;21.35;51.50586;941.0475;;;;
2020/07/18 11:03:57;;;;;;;3.5;1.7;;;;;;;21.45;50.60449;941.0555;;;;
2020/07/18 11:06:25;;;;;;;3.4;1.5;;;;;;;21.6;51.21875;941.0001;;;;
2020/07/18 11:08:51;;;;;;;2.9;1.8;;;;;;;21.32;52.57813;941.0369;;;;
2020/07/18 11:11:19;;;;;;;3.2;1.6;;;;;;;21.47;52.46777;941.0566;;;;
2020/07/18 11:13:44;;;;;;;2.5;1.6;;;;;;;21.48;54.78711;941.0247;;;;
2020/07/18 11:16:10;;;;;;;3.7;1.8;;;;;;;21.76;53.54395;940.9797;;;;
2020/07/18 11:18:35;;;;;;;2.9;1.6;;;;;;;21.88;51.32031;940.9246;;;;
2020/07/18 11:21:04;;;;;;;3.4;1.5;;;;;;;21.74;54.12793;940.8861;;;;
2020/07/18 11:23:29;;;;;;;4.1;1.6;;;;;;;21.89;53.6543;940.9071;;;;
2020/07/18 11:25:56;;;;;;;3.7;1.5;;;;;;;22.56;51.44531;940.867;;;;
2020/07/18 11:28:21;;;;;;;3;1.4;;;;;;;23.28;46.73438;940.7935;;;;
2020/07/18 11:30:49;;;;;;;2.9;1.7;;;;;;;23.61;44.66309;940.8114;;;;
2020/07/18 11:33:17;;;;;;;3.9;1.7;;;;;;;23.58;46.25879;940.7109;;;;
2020/07/18 11:35:44;;;;;;;2.4;1.3;;;;;;;23.08;44.73926;940.6242;;;;
2020/07/18 11:38:12;;;;;;;1.9;1.4;;;;;;;22.92;49.37305;940.6188;;;;
2020/07/18 11:40:40;;;;;;;3;1.5;;;;;;;23.62;48.06445;940.6354;;;;
2020/07/18 11:43:05;;;;;;;2.2;1.5;;;;;;;24.14;47.37793;940.553;;;;
2020/07/18 11:45:38;;;;;;;4.8;1.4;;;;;;;24.42;43.57813;940.5219;;;;
2020/07/18 11:48:04;;;;;;;2.3;1.4;;;;;;;24.83;42.92285;940.5172;;;;
2020/07/18 11:50:29;;;;;;;3.7;1.3;;;;;;;25.27;41.38281;940.4216;;;;
2020/07/18 11:52:57;;;;;;;1.6;1.3;;;;;;;25.42;39.4707;940.4158;;;;
2020/07/18 11:55:24;;;;;;;3.6;1.5;;;;;;;25.57;41.96582;940.4347;;;;
2020/07/18 11:57:49;;;;;;;2.2;1.4;;;;;;;25.83;40.22852;940.4009;;;;
2020/07/18 12:00:28;;;;;;;2.4;1.2;;;;;;;26.12;41.7207;940.3183;;;;
2020/07/18 12:02:53;;;;;;;1.7;1.2;;;;;;;26.02;39.66602;940.3473;;;;
2020/07/18 12:05:20;;;;;;;3;1.3;;;;;;;25.29;40.48633;940.3551;;;;
2020/07/18 12:07:45;;;;;;;2.3;1.3;;;;;;;24.94;40.05469;940.3699;;;;
2020/07/18 12:10:15;;;;;;;1.9;1.1;;;;;;;24.67;40.23047;940.3631;;;;
2020/07/18 12:12:40;;;;;;;1.8;1.3;;;;;;;24.14;47.02344;940.4123;;;;
2020/07/18 12:15:05;;;;;;;1.7;1.1;;;;;;;24.21;44.90039;940.3671;;;;
2020/07/18 12:17:33;;;;;;;3.7;1.1;;;;;;;24.52;44.99023;940.2994;;;;
2020/07/18 12:20:04;;;;;;;3.9;1.5;;;;;;;24.62;44.18652;940.3959;;;;
2020/07/18 12:22:29;;;;;;;3;1.4;;;;;;;24.67;44.33398;940.4071;;;;
2020/07/18 12:24:56;;;;;;;2.8;1.2;;;;;;;24.56;43.55566;940.3986;;;;
2020/07/18 12:27:21;;;;;;;3.4;1.3;;;;;;;24.32;45.0166;940.4992;;;;
2020/07/18 12:29:48;;;;;;;2.1;1.2;;;;;;;23.86;44.5459;940.5361;;;;
2020/07/18 12:32:13;;;;;;;3.9;1.4;;;;;;;23.63;44.92383;940.5313;;;;
2020/07/18 12:34:38;;;;;;;3.6;1.6;;;;;;;22.9;45.71973;940.538;;;;
2020/07/18 12:37:03;;;;;;;3;1.4;;;;;;;22.41;48.40234;940.5543;;;;
2020/07/18 12:39:29;;;;;;;1.9;1.4;;;;;;;21.97;48.92969;940.5811;;;;
2020/07/18 12:41:54;;;;;;;8.2;1.6;;;;;;;21.71;51.19629;940.5676;;;;
2020/07/18 12:44:19;;;;;;;2.5;1.6;;;;;;;21.76;51.55273;940.5815;;;;
2020/07/18 12:46:44;;;;;;;2.9;1.5;;;;;;;21.66;55.72168;940.587;;;;
2020/07/18 12:49:10;;;;;;;2.8;1.5;;;;;;;21.28;52.76074;940.5795;;;;
2020/07/18 12:51:50;;;;;;;4.3;1.5;;;;;;;21.51;53.20996;940.6031;;;;
2020/07/18 12:54:15;;;;;;;3.6;1.6;;;;;;;21.7;51.62695;940.5316;;;;
2020/07/18 12:56:40;;;;;;;2.4;1.7;;;;;;;21.51;53.76074;940.4144;;;;
2020/07/18 12:59:08;;;;;;;2.5;1.4;;;;;;;21.61;53.49023;940.5112;;;;
2020/07/18 13:01:34;;;;;;;1.6;1.5;;;;;;;21.63;53.17676;940.4866;;;;
2020/07/18 13:03:59;;;;;;;2.8;1.5;;;;;;;21.88;52.91504;940.4436;;;;
2020/07/18 13:06:28;;;;;;;2.4;1.3;;;;;;;22.1;51.2998;940.4991;;;;
2020/07/18 13:08:53;;;;;;;1.5;1.3;;;;;;;22.27;51.49414;940.4437;;;;
2020/07/18 13:11:26;;;;;;;3.5;1.5;;;;;;;22.19;52.62207;940.4444;;;;
2020/07/18 13:13:54;;;;;;;7.8;1.9;;;;;;;21.75;57.86523;940.4448;;;;
2020/07/18 13:16:19;;;;;;;2.9;1.5;;;;;;;21.79;54.97754;940.429;;;;
2020/07/18 13:18:44;;;;;;;2.5;1.5;;;;;;;22.02;52.25098;940.4473;;;;
2020/07/18 13:21:12;;;;;;;2;1.5;;;;;;;21.97;50.44141;940.3849;;;;
2020/07/18 13:23:37;;;;;;;4.9;1.5;;;;;;;22.08;49.86621;940.447;;;;
2020/07/18 13:26:03;;;;;;;3.2;1.5;;;;;;;22.04;53.19238;940.4154;;;;
2020/07/18 13:28:28;;;;;;;2;1.5;;;;;;;22.03;55.0293;940.4305;;;;
2020/07/18 13:30:53;;;;;;;1.6;1.5;;;;;;;22.05;54.69238;940.447;;;;
2020/07/18 13:33:21;;;;;;;4;1.7;;;;;;;22.01;51.95703;940.4249;;;;
2020/07/18 13:35:46;;;;;;;2.4;1.7;;;;;;;22.06;55.10547;940.4232;;;;
2020/07/18 13:38:13;;;;;;;2;1.4;;;;;;;22.01;53.63281;940.3797;;;;
2020/07/18 13:40:38;;;;;;;3.4;1.4;;;;;;;22.06;53.66309;940.3915;;;;
2020/07/18 13:43:04;;;;;;;3;1.6;;;;;;;22.05;49.57031;940.4399;;;;
2020/07/18 13:45:32;;;;;;;2.3;1.6;;;;;;;22.05;53.43848;940.4334;;;;
2020/07/18 13:48:00;;;;;;;1.4;1.3;;;;;;;21.89;52.30664;940.3713;;;;
2020/07/18 13:50:25;;;;;;;3.2;1.2;;;;;;;21.66;53.50977;940.403;;;;
2020/07/18 13:52:52;;;;;;;2.5;2.3;;;;;;;21.67;55.43066;940.3937;;;;
2020/07/18 13:55:17;;;;;;;5.4;3.1;;;;;;;21.76;54.56348;940.3546;;;;
2020/07/18 13:57:45;;;;;;;7.8;2.5;;;;;;;21.77;54.45898;940.3323;;;;
2020/07/18 14:00:19;;;;;;;5.5;2.3;;;;;;;21.95;55.2666;940.3798;;;;
2020/07/18 14:02:45;;;;;;;3.9;1.5;;;;;;;21.94;51.85547;940.4216;;;;
2020/07/18 14:05:14;;;;;;;1.7;1.3;;;;;;;21.92;49.42676;940.3629;;;;
2020/07/18 14:07:39;;;;;;;3;1.5;;;;;;;21.99;55.35352;940.3996;;;;
2020/07/18 14:10:11;;;;;;;2;1.5;;;;;;;21.86;55.36133;940.4012;;;;
2020/07/18 14:12:50;;;;;;;1.7;1.5;;;;;;;21.41;53.41992;940.3547;;;;
2020/07/18 14:15:26;;;;;;;4.1;1.6;;;;;;;21.48;55.38477;940.3521;;;;
2020/07/18 14:17:54;;;;;;;2;1.5;;;;;;;21.63;53.67969;940.326;;;;
2020/07/18 14:20:19;;;;;;;3.9;1.6;;;;;;;21.62;56.80566;940.3441;;;;
2020/07/18 14:22:46;;;;;;;1.8;1.4;;;;;;;21.64;49.55957;940.3292;;;;
2020/07/18 14:25:13;;;;;;;3.6;1.2;;;;;;;21.74;51.57422;940.3707;;;;
2020/07/18 14:27:40;;;;;;;3.5;1.5;;;;;;;21.55;57.5;940.4101;;;;
2020/07/18 14:30:05;;;;;;;3;1.5;;;;;;;21.28;58.07324;940.3826;;;;
2020/07/18 14:32:34;;;;;;;3.1;1.5;;;;;;;21.34;57.11035;940.3842;;;;
2020/07/18 14:34:59;;;;;;;4.8;1.7;;;;;;;21.23;58.66406;940.399;;;;
2020/07/18 14:37:25;;;;;;;2.5;1.5;;;;;;;21.22;59.70313;940.4275;;;;
2020/07/18 14:39:50;;;;;;;3.6;1.6;;;;;;;20.87;58.56836;940.3989;;;;
2020/07/18 14:42:17;;;;;;;2.8;1.6;;;;;;;21;60.52734;940.4016;;;;
2020/07/18 14:44:42;;;;;;;4.3;1.9;;;;;;;20.98;61.50684;940.4274;;;;
2020/07/18 14:47:10;;;;;;;3.4;1.6;;;;;;;20.9;62.55957;940.4336;;;;
2020/07/18 14:49:35;;;;;;;2.6;1.6;;;;;;;20.92;61.3584;940.4542;;;;
2020/07/18 14:52:02;;;;;;;2.8;1.5;;;;;;;20.95;64.00586;940.4622;;;;
2020/07/18 14:54:27;;;;;;;2.7;1.8;;;;;;;20.87;61.7959;940.5176;;;;
2020/07/18 14:56:54;;;;;;;4.9;1.6;;;;;;;20.88;61.95996;940.5775;;;;
2020/07/18 14:59:19;;;;;;;2.8;2.2;;;;;;;20.78;62.60156;940.5829;;;;
2020/07/18 15:01:48;;;;;;;2.6;1.7;;;;;;;20.69;63.82715;940.5959;;;;
2020/07/18 15:04:13;;;;;;;6.2;1.8;;;;;;;20.64;63.72656;940.632;;;;
2020/07/18 15:06:39;;;;;;;3.2;1.9;;;;;;;20.55;65.40723;940.6258;;;;
2020/07/18 15:09:04;;;;;;;3.3;2;;;;;;;20.41;65.63281;940.6041;;;;
2020/07/18 15:11:31;;;;;;;2.5;1.7;;;;;;;20.37;67.56445;940.5561;;;;
2020/07/18 15:13:56;;;;;;;3.5;1.8;;;;;;;20.32;67.7207;940.6211;;;;
2020/07/18 15:16:21;;;;;;;4.1;1.9;;;;;;;20.28;67.65723;940.6108;;;;
2020/07/18 15:18:47;;;;;;;7;2;;;;;;;20.22;68.15918;940.6461;;;;
2020/07/18 15:21:12;;;;;;;11.6;2.6;;;;;;;20.13;67.73828;940.6577;;;;
2020/07/18 15:23:40;;;;;;;11.7;3.2;;;;;;;20.08;68.62988;940.6445;;;;
2020/07/18 15:26:05;;;;;;;11;2.7;;;;;;;19.92;66.59863;940.5719;;;;
2020/07/18 15:28:31;;;;;;;4.2;2.2;;;;;;;19.99;67.49414;940.6277;;;;
2020/07/18 15:30:56;;;;;;;4.4;2.4;;;;;;;20.01;68.87402;940.5901;;;;
2020/07/18 15:33:24;;;;;;;7.2;2;;;;;;;20.03;67.65332;940.6197;;;;